Latest Weather Observations for Padthaway

IDS60801

Issued at 3:35 am CST Thursday 21 August 2014 (issued every 30 minutes, with the page automatically refreshed every 10 minutes)

About weather observations | Map of weather stations | Latest weather observations for SA | Other Formats
Station Details ID: 026100 Name: PADTHAWAY SOUTH Lat: -36.65 Lon: 140.52 Height: 37.0 m
Data from the previous 72 hours. | See also: Recent months at Padthaway
Date/Time
CST
Temp
°C
App
Temp
°C
Dew
Point
Rel
Hum
%
Delta-T
°C
Wind Press
QNH
hPa
Press
MSL
hPa
Rain
since 9 am
mm
Dir
 
Spd
km/h
Gust
km/h
Spd
kts
Gust
kts
21/03:30am 1.7 -0.2 0.5 92 0.4 SSE 0 0 0 0 - - 0.0
21/03:00am 1.0 -1.1 -0.5 90 0.5 SE 0 0 0 0 - - 0.0
21/02:30am 1.6 -1.7 0.1 90 0.6 SE 7 7 4 4 - - 0.0
21/02:00am 2.2 -1.0 0.6 89 0.6 SE 7 9 4 5 - - 0.0
21/01:30am 2.8 -0.7 1.0 88 0.7 SE 9 11 5 6 - - 0.0
21/01:00am 3.2 -0.3 1.3 87 0.7 SSE 9 11 5 6 - - 0.0
21/12:30am 4.1 0.3 1.8 85 0.9 SE 11 11 6 6 - - 0.0
21/12:00am 4.4 1.4 2.3 86 0.8 SE 7 9 4 5 - - 0.0
 
Date/Time
CST
Temp
°C
App
Temp
°C
Dew
Point
Rel
Hum
%
Delta-T
°C
Wind Press
QNH
hPa
Press
MSL
hPa
Rain
since 9 am
mm
Dir
 
Spd
km/h
Gust
km/h
Spd
kts
Gust
kts
20/11:30pm 4.5 1.8 2.4 86 0.8 SSE 6 9 3 5 - - 0.0
20/11:00pm 4.1 2.4 2.0 86 0.8 CALM 0 0 0 0 - - 0.0
20/10:30pm 4.2 2.2 2.1 86 0.8 S 2 7 1 4 - - 0.0
20/10:00pm 4.6 2.9 2.0 83 1.0 CALM 0 0 0 0 - - 0.0
20/09:30pm 5.9 4.4 2.9 81 1.2 CALM 0 0 0 0 - - 0.0
20/09:00pm 6.8 4.0 3.1 77 1.6 E 7 9 4 5 - - 0.0
20/08:30pm 8.1 5.3 3.4 72 2.0 E 7 9 4 5 - - 0.0
20/08:00pm 9.0 5.9 3.8 70 2.3 ESE 9 11 5 6 - - 0.0
20/07:30pm 9.4 6.5 4.4 71 2.2 ESE 9 15 5 8 - - 0.0
20/07:00pm 9.8 7.3 4.8 71 2.2 SSE 7 11 4 6 - - 0.0
20/06:30pm 10.4 7.6 5.0 69 2.4 SE 9 11 5 6 - - 0.0
20/06:00pm 10.9 7.6 4.8 66 2.8 SE 11 13 6 7 - - 0.0
20/05:30pm 11.3 8.5 5.2 66 2.8 SSE 9 13 5 7 - - 0.0
20/05:00pm 11.7 8.8 4.9 63 3.1 SSE 9 13 5 7 - - 0.0
20/04:30pm 12.2 8.5 4.2 58 3.6 SSE 13 19 7 10 - - 0.0
20/04:00pm 12.2 8.2 4.9 61 3.4 S 15 19 8 10 - - 0.0
20/03:30pm 12.4 8.8 4.9 60 3.4 S 13 19 7 10 - - 0.0
20/03:00pm 12.3 7.9 5.0 61 3.4 S 17 20 9 11 - - 0.0
20/02:30pm 12.4 8.7 4.6 59 3.6 SSE 13 20 7 11 - - 0.0
20/02:00pm 12.6 8.6 3.0 52 4.2 S 13 19 7 10 - - 0.0
20/01:30pm 12.5 9.1 4.0 56 3.8 SSE 11 15 6 8 - - 0.0
20/01:00pm 12.2 8.5 4.4 59 3.5 SSE 13 19 7 10 - - 0.0
20/12:30pm 12.2 8.4 3.9 57 3.7 S 13 17 7 9 - - 0.0
20/12:00pm 12.0 7.9 4.5 60 3.4 S 15 20 8 11 - - 0.0
20/11:30am 11.9 9.0 4.6 61 3.3 S 9 17 5 9 - - 0.0
20/11:00am 12.0 8.6 4.0 58 3.6 SE 11 15 6 8 - - 0.0
20/10:30am 11.7 8.4 4.4 61 3.3 SSE 11 17 6 9 - - 0.0
20/10:00am 11.6 9.1 5.0 64 3.0 SE 7 11 4 6 - - 0.0
20/09:30am 11.0 9.6 5.5 69 2.5 S 2 6 1 3 - - 0.0
20/09:00am 10.0 8.7 6.0 76 1.8 ENE 2 7 1 4 - - 0.0
20/08:30am 9.0 8.3 6.8 86 1.0 CALM 0 0 0 0 - - 0.0
20/08:00am 8.3 7.6 6.8 90 0.7 SSW 0 0 0 0 - - 0.0
20/07:30am 7.8 7.0 6.3 90 0.7 CALM 0 0 0 0 - - 0.0
20/07:00am 7.4 5.1 5.7 89 0.8 SSE 7 9 4 5 - - 0.0
20/06:30am 7.6 5.4 6.1 90 0.7 SSE 7 11 4 6 - - 0.0
20/06:00am 7.7 5.5 6.0 89 0.8 SSE 7 9 4 5 - - 0.0
20/05:30am 7.7 5.6 6.0 89 0.8 S 6 9 3 5 - - 0.0
20/05:00am 7.8 6.1 6.1 89 0.8 SSE 4 11 2 6 - - 0.0
20/04:30am 7.9 5.7 6.0 88 0.9 SSE 7 11 4 6 - - 0.0
20/04:00am 7.9 5.3 6.0 88 0.9 SSE 9 13 5 7 - - 0.0
20/03:30am 7.4 6.6 6.3 93 0.5 CALM 0 0 0 0 - - 0.0
20/03:00am 7.4 5.4 6.3 93 0.5 S 6 7 3 4 - - 0.0
20/02:30am 7.4 6.2 6.3 93 0.5 SSE 2 7 1 4 - - 0.0
20/02:00am 7.4 6.6 6.3 93 0.5 CALM 0 2 0 1 - - 0.0
20/01:30am 7.4 5.5 6.5 94 0.4 SSE 6 9 3 5 - - 0.0
20/01:00am 7.1 4.9 6.2 94 0.4 SSE 7 9 4 5 - - 0.0
20/12:30am 6.7 4.0 5.8 94 0.4 SE 9 9 5 5 - - 0.0
20/12:00am 5.7 2.8 4.7 93 0.4 SSE 9 11 5 6 - - 0.0
 
Date/Time
CST
Temp
°C
App
Temp
°C
Dew
Point
Rel
Hum
%
Delta-T
°C
Wind Press
QNH
hPa
Press
MSL
hPa
Rain
since 9 am
mm
Dir
 
Spd
km/h
Gust
km/h
Spd
kts
Gust
kts
19/11:30pm 5.2 2.1 3.5 89 0.7 SSE 9 11 5 6 - - 0.0
19/11:00pm 6.7 3.8 4.5 86 1.0 SSE 9 11 5 6 - - 0.0
19/10:30pm 7.7 4.8 4.8 82 1.3 SSE 9 11 5 6 - - 0.0
19/10:00pm 9.1 6.4 5.5 78 1.6 SSE 9 11 5 6 - - 0.0
19/09:30pm 9.1 6.4 5.7 79 1.5 SSE 9 11 5 6 - - 0.0
19/09:00pm 8.8 6.8 6.1 83 1.2 S 6 7 3 4 - - 0.0
19/08:30pm 8.9 7.5 5.6 80 1.5 ESE 2 6 1 3 - - 0.0
19/08:00pm 9.3 7.9 5.7 78 1.6 S 2 7 1 4 - - 0.0
19/07:30pm 9.9 8.6 5.9 76 1.8 SSE 2 17 1 9 - - 0.0
19/07:00pm 9.9 8.9 5.7 75 1.9 CALM 0 0 0 0 - - 0.0
19/06:30pm 10.3 8.1 5.5 72 2.2 S 6 9 3 5 - - 0.0
19/06:00pm 10.4 7.7 5.6 72 2.2 S 9 11 5 6 - - 0.0
19/05:30pm 10.7 7.6 5.7 71 2.3 S 11 17 6 9 - - 0.0
19/05:00pm 11.0 7.6 5.7 70 2.5 SSE 13 19 7 10 - - 0.0
19/04:30pm 11.2 7.8 6.1 71 2.4 SSE 13 19 7 10 - - 0.0
19/04:00pm 11.5 6.9 5.8 68 2.7 S 19 26 10 14 - - 0.0
19/03:30pm 11.9 7.7 5.8 66 2.8 S 17 22 9 12 - - 0.0
19/03:00pm 11.9 8.3 4.9 62 3.2 S 13 20 7 11 - - 0.0
19/02:30pm 12.0 7.4 5.6 65 3.0 S 19 24 10 13 - - 0.0
19/02:00pm 12.6 8.2 4.6 58 3.7 S 17 24 9 13 - - 0.0
19/01:30pm 12.7 8.3 4.9 59 3.6 S 17 24 9 13 - - 0.0
19/01:00pm 13.3 9.2 6.2 62 3.4 S 17 24 9 13 - - 0.0
19/12:30pm 12.8 8.3 5.9 63 3.3 SSE 19 24 10 13 - - 0.0
19/12:00pm 12.1 8.6 7.2 72 2.4 SSE 15 22 8 12 - - 0.0
19/11:30am 11.5 7.1 6.6 72 2.3 S 19 24 10 13 - - 0.0
19/11:00am 11.1 7.1 6.8 75 2.0 S 17 20 9 11 - - 0.0
19/10:30am 10.0 7.7 7.3 83 1.3 S 9 15 5 8 - - 0.0
19/10:00am 8.4 6.4 7.2 92 0.6 SSE 7 9 4 5 - - 0.0
19/09:30am 6.8 5.6 6.4 97 0.2 S 2 9 1 5 - - 0.0
19/09:00am 5.7 4.7 5.4 98 0.1 CALM 0 0 0 0 - - 0.0
19/08:30am 4.8 3.6 4.5 98 0.1 CALM 0 0 0 0 - - 0.0
19/08:00am 3.8 2.4 3.5 98 0.1 CALM 0 0 0 0 - - 0.0
19/07:30am 2.4 0.7 2.1 98 0.1 CALM 0 0 0 0 - - 0.0
19/07:00am 1.9 0.2 1.6 98 0.1 CALM 0 0 0 0 - - 0.0
19/06:30am 1.8 0.0 1.5 98 0.1 CALM 0 0 0 0 - - 0.0
19/06:00am 1.6 -0.2 1.2 97 0.2 CALM 0 0 0 0 - - 0.0
19/05:30am 1.4 -0.4 1.0 97 0.1 CALM 0 0 0 0 - - 0.0
19/05:00am 1.0 -0.9 0.6 97 0.1 CALM 0 0 0 0 - - 0.0
19/04:30am 0.3 -1.7 -0.1 97 0.1 CALM 0 0 0 0 - - 0.0
19/04:00am 0.0 -2.1 -0.6 96 0.2 CALM 0 0 0 0 - - 0.0
19/03:30am 0.2 -1.8 -0.4 96 0.2 CALM 0 0 0 0 - - 0.0
19/03:00am 0.6 -1.4 0.0 96 0.2 CALM 0 0 0 0 - - 0.0
19/02:30am 1.0 -1.7 0.3 95 0.3 E 4 9 2 5 - - 0.0
19/02:00am 1.0 -1.0 0.1 94 0.3 CALM 0 0 0 0 - - 0.0
19/01:30am 1.2 -0.8 0.2 93 0.4 CALM 0 0 0 0 - - 0.0
19/01:00am 2.2 -0.4 1.2 93 0.4 WSW 4 9 2 5 - - 0.0
19/12:30am 2.4 0.6 1.2 92 0.5 CALM 0 0 0 0 - - 0.0
19/12:00am 3.2 1.5 1.7 90 0.6 CALM 0 0 0 0 - - 0.0
 
Date/Time
CST
Temp
°C
App
Temp
°C
Dew
Point
Rel
Hum
%
Delta-T
°C
Wind Press
QNH
hPa
Press
MSL
hPa
Rain
since 9 am
mm
Dir
 
Spd
km/h
Gust
km/h
Spd
kts
Gust
kts
18/11:30pm 4.5 1.6 2.8 89 0.7 SE 7 9 4 5 - - 0.0
18/11:00pm 5.8 2.7 3.5 85 1.0 S 9 11 5 6 - - 0.0
18/10:30pm 7.3 3.7 4.8 84 1.1 S 13 15 7 8 - - 0.0
18/10:00pm 8.0 4.7 4.8 80 1.4 S 11 15 6 8 - - 0.0
18/09:30pm 8.6 5.3 4.8 77 1.7 S 11 17 6 9 - - 0.0
18/09:00pm 9.6 6.4 5.2 74 2.0 S 11 17 6 9 - - 0.0
18/08:30pm 9.7 6.6 5.5 75 1.9 S 11 19 6 10 - - 0.0
18/08:00pm 9.8 7.0 5.0 72 2.2 S 9 15 5 8 - - 0.0
18/07:30pm 9.6 6.8 5.2 74 2.0 SSW 9 13 5 7 - - 0.0
18/07:00pm 9.9 6.7 4.9 71 2.3 SSW 11 15 6 8 - - 0.0
18/06:30pm 10.3 7.1 4.9 69 2.4 S 11 17 6 9 - - 0.0
18/06:00pm 10.4 6.7 4.5 67 2.6 S 13 19 7 10 - - 0.0
18/05:30pm 10.8 6.6 3.6 61 3.2 S 15 22 8 12 - - 0.0
18/05:00pm 11.1 7.4 4.3 63 3.1 S 13 19 7 10 - - 0.0
18/04:30pm 11.5 6.5 3.5 58 3.5 SSE 19 28 10 15 - - 0.0
18/04:00pm 11.5 6.4 2.8 55 3.8 SSE 19 28 10 15 - - 0.0
18/03:30pm 11.8 6.5 3.1 55 3.8 S 20 30 11 16 - - 0.0
18/03:00pm 12.0 6.1 3.8 57 3.7 SSE 24 35 13 19 - - 0.0
18/02:30pm 12.0 6.4 3.5 56 3.8 SSE 22 30 12 16 - - 0.0
18/02:00pm 12.1 6.1 3.1 54 4.0 SSE 24 33 13 18 - - 0.0
18/01:30pm 12.0 6.5 4.0 58 3.6 SSE 22 33 12 18 - - 0.0
18/01:00pm 11.6 6.0 3.4 57 3.6 SSE 22 32 12 17 - - 0.0
18/12:30pm 12.0 6.4 3.3 55 3.8 SSE 22 35 12 19 - - 0.0
18/12:00pm 11.6 5.9 3.1 56 3.7 SSE 22 32 12 17 - - 0.0
18/11:30am 12.1 6.6 4.1 58 3.6 SSE 22 33 12 18 - - 0.0
18/11:00am 11.7 6.5 3.7 58 3.6 SSE 20 26 11 14 - - 0.0
18/10:30am 11.3 7.4 3.6 59 3.4 SSE 13 19 7 10 - - 0.0
18/10:00am 10.3 7.4 4.9 69 2.4 S 9 15 5 8 - - 0.0
18/09:30am 9.7 6.5 5.3 74 2.0 S 11 15 6 8 - - 0.0
18/09:00am 8.8 6.5 5.5 80 1.5 S 7 11 4 6 - - 0.0
18/08:30am 8.0 5.2 5.3 83 1.2 S 9 13 5 7 - - 0.0
18/08:00am 6.9 5.0 4.7 86 1.0 SSW 4 13 2 7 - - 0.0
18/07:30am 6.5 3.1 4.2 85 1.0 S 11 15 6 8 - - 0.0
18/07:00am 4.5 1.5 3.9 96 0.3 ENE 9 11 5 6 - - 0.0
18/06:30am 4.0 2.2 3.4 96 0.2 W 2 7 1 4 - - 0.0
18/06:00am 3.4 1.9 2.8 96 0.2 CALM 0 0 0 0 - - 0.0
18/05:30am 3.6 2.1 3.0 96 0.2 CALM 0 0 0 0 - - 0.0
18/05:00am 3.2 0.9 2.6 96 0.2 SW 4 9 2 5 - - 0.0
18/04:30am 2.7 1.0 2.1 96 0.2 CALM 0 0 0 0 - - 0.0
18/04:00am 2.1 0.3 1.5 96 0.2 CALM 0 0 0 0 - - 0.0

Other Formats:

Comma delimited format used in spreadsheet applications
http://www.bom.gov.au/fwo/IDS60801/IDS60801.95823.axf

JavaScript Object Notation format (JSON) in row-major order
http://www.bom.gov.au/fwo/IDS60801/IDS60801.95823.json